Date,TemperatureHighF,TemperatureAvgF,TemperatureLowF,DewpointHighF,DewpointAvgF,DewpointLowF,HumidityHigh,HumidityAvg,HumidityLow,PressureMaxIn,PressureMinIn,WindSpeedMaxMPH,WindSpeedAvgMPH,GustSpeedMaxMPH,PrecipitationSumIn
2012-12-1,46.1,40.3,32.5,29.4,25.3,18.9,70,55,42,29.93,29.71,15,9,36,0.00
2012-12-2,50.4,40.7,26.9,28.3,20.3,17.4,72,45,28,29.92,29.46,24,12,37,0.00
2012-12-3,40.5,30.4,24.5,31.0,10.8,-0.3,78,46,25,30.27,29.61,35,10,41,0.02
2012-12-4,40.0,32.7,25.3,21.8,11.2,-0.7,55,41,27,30.42,30.25,28,13,31,0.00
2012-12-5,49.8,39.0,30.0,26.5,23.5,19.8,73,55,34,30.25,29.79,21,9,36,0.00
2012-12-6,41.4,34.1,29.0,25.4,20.6,16.6,73,58,38,29.90,29.76,16,6,29,0.00
2012-12-7,31.0,26.9,20.8,23.2,15.4,10.5,79,62,52,29.95,29.72,18,8,32,0.01
2012-12-8,24.2,17.9,7.2,18.4,9.6,-2.7,86,70,56,30.12,29.75,14,8,27,0.13
2012-12-9,9.4,4.0,-5.5,-0.4,-4.5,-10.7,81,67,58,30.53,30.12,33,5,43,0.00
2012-12-10,19.4,13.1,7.0,11.1,4.1,-3.3,80,67,53,30.40,30.17,25,10,43,0.00
2012-12-11,25.0,18.6,7.4,15.4,10.3,2.5,82,70,61,30.24,29.99,35,9,44,0.00
2012-12-12,36.6,27.4,20.1,17.2,14.1,11.7,73,57,44,30.05,29.87,21,8,23,0.00
2012-12-13,40.0,30.4,20.5,17.2,14.2,11.5,71,52,36,30.06,29.95,13,5,18,0.00
2012-12-14,39.1,31.0,17.6,19.4,14.4,9.8,72,51,32,29.95,29.57,21,5,25,0.00
2012-12-15,31.4,27.1,22.1,24.2,18.8,13.5,83,71,58,29.74,29.66,18,4,18,0.00
2012-12-16,23.1,20.1,17.5,16.8,12.5,9.2,85,72,59,29.89,29.68,19,7,33,0.02
2012-12-17,29.8,24.3,19.2,22.1,16.8,12.2,90,73,63,29.86,29.65,19,8,28,0.11
2012-12-18,20.2,17.0,11.8,15.3,8.7,3.7,85,70,52,29.89,29.75,15,5,26,0.08
2012-12-19,12.3,7.9,1.5,8.4,0.4,-7.4,85,71,47,30.46,29.86,41,8,53,0.05
2012-12-20,27.6,17.8,6.5,2.5,-1.9,-7.0,62,42,29,30.66,30.47,37,16,49,0.00
2012-12-21,40.5,27.6,16.9,8.6,3.9,1.0,59,37,25,30.51,30.18,15,5,20,0.00
2012-12-22,43.2,34.3,27.4,1.2,-1.7,-5.0,31,21,16,30.17,29.89,16,9,29,0.00
2012-12-23,31.8,26.3,22.6,17.0,11.5,-4.8,76,55,20,29.98,29.86,16,7,21,0.00
2012-12-24,30.0,24.1,14.3,22.1,18.2,10.1,88,78,60,29.93,29.74,16,4,28,0.33
2012-12-25,16.1,8.8,1.1,10.3,3.1,-3.6,92,77,64,30.35,29.94,13,1,13,0.02
2012-12-26,28.4,19.1,13.9,18.7,9.3,2.4,86,66,52,30.28,29.73,12,4,18,0.00
2012-12-27,19.2,13.4,4.2,8.8,3.2,-1.7,77,64,52,30.11,29.71,10,3,18,0.00
2012-12-28,17.7,11.5,1.5,5.1,1.5,-3.4,80,64,53,30.41,30.11,30,10,40,0.00
2012-12-29,30.1,16.7,8.5,8.2,-1.4,-9.2,68,47,20,30.49,30.15,16,6,21,0.00
2012-12-30,29.3,19.0,9.9,9.0,3.3,-8.7,78,53,23,30.17,30.04,17,4,23,0.00
2012-12-31,14.0,6.6,-1.4,8.3,1.8,-5.9,83,80,73,30.39,30.08,5,1,8,0.00